Desoto, Missouri
Current Conditions -  °F | °C
As of 5:15 AM on Friday 28 Nov 2014 (Local Time) from KFAM Reporting Station
Clear Clear  
Wind Chill: 17°   Ceiling: Unl
Heat Index: 27°   Visibility: 6mi
Dew Point: 25°   Wind: 9mph
Humidity: 93%   Direction: 130°SE
Pressure: 30.3"   Gusts: NA
Location:  38.0925°N, 90.5691°W
Report Text: KFAM 281115Z AUTO 13008KT 6SM CLR M03/M04 A3030 RMK AO1
Loading
Personal Weather Stations






























Interactive Weather Map New forecast layout! Learn more

10-Day Weather Forecast

Advertisements
Track Severe Weather on mobile